createdAt,value
2023-03-10T00:00:49.070Z,98530.53
2023-03-10T00:03:21.081Z,98539.28
2023-03-10T00:05:53.075Z,98532.28
2023-03-10T00:08:27.082Z,98534.91
2023-03-10T00:11:00.560Z,98551.50
2023-03-10T00:13:32.730Z,98555.84
2023-03-10T00:16:06.608Z,98555.84
2023-03-10T00:18:38.574Z,98548.84
2023-03-10T00:21:16.575Z,98547.13
2023-03-10T00:23:48.717Z,98552.38
2023-03-10T00:26:22.977Z,98539.25
2023-03-10T00:28:55.833Z,98539.25
2023-03-10T00:31:28.725Z,98528.81
2023-03-10T00:34:01.008Z,98531.41
2023-03-10T00:36:33.758Z,98529.66
2023-03-10T00:39:07.072Z,98528.78
2023-03-10T00:41:39.304Z,98550.63
2023-03-10T00:44:12.247Z,98545.38
2023-03-10T00:46:44.298Z,98546.22
2023-03-10T00:49:17.457Z,98537.50
2023-03-10T00:51:49.433Z,98540.13
2023-03-10T00:54:21.327Z,98546.22
2023-03-10T00:56:53.276Z,98540.13
2023-03-10T00:59:25.178Z,98535.78
2023-03-10T01:01:57.150Z,98543.63
2023-03-10T01:04:29.247Z,98538.38
2023-03-10T01:07:01.281Z,98542.78
2023-03-10T01:09:33.187Z,98541.91
2023-03-10T01:12:05.656Z,98542.78
2023-03-10T01:14:37.594Z,98543.66
2023-03-10T01:17:10.535Z,98535.78
2023-03-10T01:19:42.451Z,98545.38
2023-03-10T01:22:14.434Z,98535.78
2023-03-10T01:24:46.420Z,98522.69
2023-03-10T01:27:18.415Z,98521.84
2023-03-10T01:29:50.363Z,98523.56
2023-03-10T01:32:22.366Z,98523.59
2023-03-10T01:34:54.539Z,98513.09
2023-03-10T01:37:26.645Z,98523.59
2023-03-10T01:39:58.694Z,98514.84
2023-03-10T01:42:31.876Z,98517.44
2023-03-10T01:45:15.836Z,98513.09
2023-03-10T01:47:47.780Z,98510.47
2023-03-10T01:50:19.973Z,98508.72
2023-03-10T01:52:58.272Z,98507.00
2023-03-10T01:55:39.911Z,98494.75
2023-03-10T01:58:12.097Z,98495.63
2023-03-10T02:00:44.547Z,98496.50
2023-03-10T02:03:24.658Z,98471.19
2023-03-10T02:06:06.393Z,98489.50
2023-03-10T02:08:45.481Z,98465.03
2023-03-10T02:11:19.549Z,98499.97
2023-03-10T02:13:52.372Z,98497.34
2023-03-10T02:16:24.450Z,98501.72
2023-03-10T02:18:56.432Z,98492.13
2023-03-10T02:21:54.446Z,98486.88
2023-03-10T02:24:45.680Z,98476.41
2023-03-10T02:27:34.485Z,98478.16
2023-03-10T02:30:22.280Z,98478.13
2023-03-10T02:33:00.146Z,98470.25
2023-03-10T02:35:32.208Z,98473.75
2023-03-10T02:38:05.572Z,98461.53
2023-03-10T02:40:45.943Z,98465.00
2023-03-10T02:43:27.864Z,98458.06
2023-03-10T02:46:05.219Z,98472.88
2023-03-10T02:48:38.975Z,98441.47
2023-03-10T02:51:21.660Z,98458.94
2023-03-10T02:53:53.828Z,98457.16
2023-03-10T02:56:26.226Z,98458.91
2023-03-10T02:58:59.550Z,98453.66
2023-03-10T03:01:31.932Z,98435.28
2023-03-10T03:04:04.893Z,98440.53
2023-03-10T03:06:37.043Z,98430.94
2023-03-10T03:09:09.070Z,98439.69
2023-03-10T03:11:41.071Z,98432.69
2023-03-10T03:14:13.068Z,98434.44
2023-03-10T03:16:45.064Z,98418.69
2023-03-10T03:19:17.148Z,98422.19
2023-03-10T03:21:50.222Z,98421.34
2023-03-10T03:24:22.403Z,98423.94
2023-03-10T03:26:54.492Z,98416.97
2023-03-10T03:29:26.509Z,98421.34
2023-03-10T03:31:58.617Z,98416.09
2023-03-10T03:34:30.692Z,98423.09
2023-03-10T03:37:02.612Z,98421.34
2023-03-10T03:39:34.665Z,98421.31
2023-03-10T03:42:07.282Z,98413.47
2023-03-10T03:44:39.261Z,98423.06
2023-03-10T03:47:11.323Z,98421.31
2023-03-10T03:49:43.429Z,98418.69
2023-03-10T03:52:15.329Z,98423.97
2023-03-10T03:54:47.371Z,98421.31
2023-03-10T03:57:19.793Z,98418.69
2023-03-10T03:59:52.184Z,98416.06
2023-03-10T04:02:24.510Z,98403.81
2023-03-10T04:04:56.486Z,98412.56
2023-03-10T04:07:28.448Z,98416.03
2023-03-10T04:10:00.510Z,98407.34
2023-03-10T04:12:32.426Z,98375.03
2023-03-10T04:15:07.641Z,98384.63
2023-03-10T04:17:40.048Z,98395.94
2023-03-10T04:20:14.316Z,98402.06
2023-03-10T04:22:46.399Z,98399.44
2023-03-10T04:25:18.722Z,98399.44
2023-03-10T04:27:50.726Z,98393.31
2023-03-10T04:30:24.064Z,98388.97
2023-03-10T04:33:00.708Z,98403.81
2023-03-10T04:35:32.879Z,98402.94
2023-03-10T04:38:04.841Z,98406.41
2023-03-10T04:40:36.872Z,98396.81
2023-03-10T04:43:08.866Z,98386.34
2023-03-10T04:45:40.780Z,98393.34
2023-03-10T04:48:12.779Z,98395.97
2023-03-10T04:50:44.807Z,98387.25
2023-03-10T04:53:16.707Z,98377.63
2023-03-10T04:55:48.636Z,98390.75
2023-03-10T04:58:22.284Z,98384.59
2023-03-10T05:01:02.806Z,98383.75
2023-03-10T05:03:36.180Z,98387.22
2023-03-10T05:06:18.393Z,98381.13
2023-03-10T05:08:50.495Z,98379.38
2023-03-10T05:11:23.930Z,98381.09
2023-03-10T05:13:55.869Z,98381.13
2023-03-10T05:16:28.091Z,98374.13
2023-03-10T05:19:00.146Z,98370.63
2023-03-10T05:21:32.277Z,98383.72
2023-03-10T05:24:04.526Z,98367.13
2023-03-10T05:26:36.542Z,98377.63
2023-03-10T05:29:08.872Z,98377.59
2023-03-10T05:31:40.829Z,98379.38
2023-03-10T05:34:14.170Z,98381.97
2023-03-10T05:36:46.250Z,98371.53
2023-03-10T05:39:18.240Z,98375.88
2023-03-10T05:41:50.460Z,98383.72
2023-03-10T05:44:22.692Z,98375.00
2023-03-10T05:46:54.949Z,98372.38
2023-03-10T05:49:27.072Z,98367.16
2023-03-10T05:51:59.578Z,98379.38
2023-03-10T05:54:31.504Z,98380.25
2023-03-10T05:57:03.566Z,98378.50
2023-03-10T05:59:35.643Z,98353.16
2023-03-10T06:02:07.581Z,98380.19
2023-03-10T06:04:39.799Z,98372.34
2023-03-10T06:07:11.743Z,98382.84
2023-03-10T06:09:43.710Z,98387.19
2023-03-10T06:12:15.625Z,98381.06
2023-03-10T06:14:47.746Z,98378.47
2023-03-10T06:17:19.869Z,98385.44
2023-03-10T06:19:52.410Z,98377.63
2023-03-10T06:22:24.385Z,98393.31
2023-03-10T06:24:57.095Z,98380.25
2023-03-10T06:27:31.142Z,98400.31
2023-03-10T06:30:03.253Z,98397.69
2023-03-10T06:32:35.545Z,98361.06
2023-03-10T06:35:08.122Z,98400.31
2023-03-10T06:37:40.144Z,98389.84
2023-03-10T06:40:14.189Z,98402.94
2023-03-10T06:42:46.351Z,98404.69
2023-03-10T06:45:18.316Z,98407.31
2023-03-10T06:47:50.237Z,98402.06
2023-03-10T06:50:22.147Z,98416.91
2023-03-10T06:52:54.089Z,98414.28
2023-03-10T06:55:26.045Z,98412.53
2023-03-10T06:57:57.995Z,98409.03
2023-03-10T07:00:30.144Z,98405.50
2023-03-10T07:03:02.167Z,98407.22
2023-03-10T07:05:34.185Z,98408.13
2023-03-10T07:08:06.325Z,98405.47
2023-03-10T07:10:38.251Z,98404.63
2023-03-10T07:13:13.908Z,98403.75
2023-03-10T07:15:46.560Z,98402.00
2023-03-10T07:18:18.773Z,98411.56
2023-03-10T07:20:53.139Z,98415.91
2023-03-10T07:23:25.888Z,98417.69
2023-03-10T07:25:57.934Z,98415.03
2023-03-10T07:28:30.371Z,98420.28
2023-03-10T07:31:12.764Z,98419.41
2023-03-10T07:33:44.883Z,98426.41
2023-03-10T07:36:19.614Z,98419.38
2023-03-10T07:38:51.651Z,98426.34
2023-03-10T07:41:23.620Z,98428.09
2023-03-10T07:43:55.752Z,98434.19
2023-03-10T07:46:28.032Z,98421.91
2023-03-10T07:49:04.308Z,98429.75
2023-03-10T07:51:36.381Z,98422.69
2023-03-10T07:54:08.341Z,98429.66
2023-03-10T07:56:40.280Z,98427.03
2023-03-10T07:59:12.254Z,98411.34
2023-03-10T08:01:44.405Z,98419.13
2023-03-10T08:04:17.361Z,98427.88
2023-03-10T08:06:49.456Z,98434.03
2023-03-10T08:09:21.513Z,98430.53
2023-03-10T08:11:53.483Z,98430.56
2023-03-10T08:14:25.817Z,98420.94
2023-03-10T08:16:58.528Z,98413.94
2023-03-10T08:19:30.494Z,98420.84
2023-03-10T08:22:02.363Z,98427.81
2023-03-10T08:24:34.306Z,98429.41
2023-03-10T08:27:06.439Z,98429.34
2023-03-10T08:29:39.060Z,98432.66
2023-03-10T08:32:11.239Z,98428.19
2023-03-10T08:34:43.405Z,98436.94
2023-03-10T08:37:15.379Z,98423.91
2023-03-10T08:39:47.526Z,98430.91
2023-03-10T08:42:19.662Z,98436.22
2023-03-10T08:44:51.812Z,98436.22
2023-03-10T08:47:23.858Z,98431.78
2023-03-10T08:49:55.888Z,98429.16
2023-03-10T08:52:27.886Z,98434.41
2023-03-10T08:55:00.046Z,98437.84
2023-03-10T08:57:32.668Z,98432.50
2023-03-10T09:00:06.470Z,98440.31
2023-03-10T09:02:39.493Z,98429.66
2023-03-10T09:05:11.530Z,98432.34
2023-03-10T09:07:43.504Z,98429.81
2023-03-10T09:10:16.222Z,98436.81
2023-03-10T09:12:48.802Z,98435.09
2023-03-10T09:15:21.186Z,98428.94
2023-03-10T09:17:53.142Z,98428.94
2023-03-10T09:20:29.307Z,98435.94
2023-03-10T09:23:01.467Z,98421.06
2023-03-10T09:25:33.716Z,98428.00
2023-03-10T09:28:07.818Z,98429.72
2023-03-10T09:30:43.048Z,98426.25
2023-03-10T09:33:19.375Z,98423.66
2023-03-10T09:36:05.586Z,98413.16
2023-03-10T09:38:38.455Z,98421.09
2023-03-10T09:41:35.221Z,98425.56
2023-03-10T09:44:35.048Z,98434.41
2023-03-10T09:47:09.859Z,98431.75
2023-03-10T09:50:19.659Z,98445.88
2023-03-10T09:53:25.993Z,98442.34
2023-03-10T09:55:58.113Z,98438.84
2023-03-10T09:58:35.465Z,98441.44
2023-03-10T10:01:34.140Z,98448.50
2023-03-10T10:04:30.639Z,98453.75
2023-03-10T10:07:14.184Z,98448.50
2023-03-10T10:10:02.899Z,98442.44
2023-03-10T10:12:36.049Z,98460.75
2023-03-10T10:15:19.444Z,98459.03
2023-03-10T10:18:26.779Z,98464.41
2023-03-10T10:21:10.522Z,98459.19
2023-03-10T10:23:54.903Z,98472.38
2023-03-10T10:26:28.349Z,98466.25
2023-03-10T10:29:11.421Z,98468.06
2023-03-10T10:32:02.708Z,98457.63
2023-03-10T10:34:37.333Z,98465.47
2023-03-10T10:37:42.916Z,98471.59
2023-03-10T10:40:27.300Z,98466.34
2023-03-10T10:43:01.029Z,98456.69
2023-03-10T10:45:39.988Z,98458.44
2023-03-10T10:48:41.766Z,98452.28
2023-03-10T10:51:29.067Z,98450.50
2023-03-10T10:54:18.118Z,98442.53
2023-03-10T10:56:57.346Z,98450.41
2023-03-10T10:59:33.552Z,98443.44
2023-03-10T11:02:34.910Z,98438.22
2023-03-10T11:05:12.805Z,98426.78
2023-03-10T11:07:45.455Z,98432.00
2023-03-10T11:10:21.380Z,98424.13
2023-03-10T11:13:21.876Z,98432.09
2023-03-10T11:16:06.227Z,98435.59
2023-03-10T11:18:52.263Z,98430.41
2023-03-10T11:21:29.729Z,98420.78
2023-03-10T11:24:13.889Z,98435.63
2023-03-10T11:26:51.324Z,98429.50
2023-03-10T11:30:15.184Z,98428.66
2023-03-10T11:33:16.881Z,98418.19
2023-03-10T11:36:01.010Z,98420.78
2023-03-10T11:38:42.521Z,98418.16
2023-03-10T11:41:21.360Z,98415.50
2023-03-10T11:43:58.934Z,98415.53
2023-03-10T11:46:52.323Z,98404.25
2023-03-10T11:49:32.323Z,98397.22
2023-03-10T11:52:24.998Z,98407.72
2023-03-10T11:55:06.529Z,98379.69
2023-03-10T11:57:45.930Z,98382.06
2023-03-10T12:00:31.078Z,98385.75
2023-03-10T12:03:44.412Z,98396.25
2023-03-10T12:06:26.864Z,98384.88
2023-03-10T12:09:01.504Z,98394.47
2023-03-10T12:11:36.729Z,98380.56
2023-03-10T12:14:14.660Z,98391.03
2023-03-10T12:16:49.195Z,98393.59
2023-03-10T12:19:21.159Z,98392.75
2023-03-10T12:22:21.176Z,98389.28
2023-03-10T12:24:53.172Z,98379.56
2023-03-10T12:27:25.109Z,98369.13
2023-03-10T12:29:57.030Z,98373.44
2023-03-10T12:32:47.679Z,98366.41
2023-03-10T12:35:28.725Z,98371.66
2023-03-10T12:38:50.028Z,98360.28
2023-03-10T12:41:27.999Z,98360.25
2023-03-10T12:44:46.742Z,98364.66
2023-03-10T12:47:43.045Z,98374.25
2023-03-10T12:50:53.556Z,98371.66
2023-03-10T12:53:58.769Z,98369.97
2023-03-10T12:57:08.270Z,98363.81
2023-03-10T12:59:50.338Z,98353.28
2023-03-10T13:02:33.785Z,98355.00
2023-03-10T13:05:19.975Z,98346.25
2023-03-10T13:08:02.799Z,98341.03
2023-03-10T13:10:36.065Z,98342.78
2023-03-10T13:13:16.430Z,98346.31
2023-03-10T13:16:05.755Z,98370.00
2023-03-10T13:18:37.759Z,98366.50
2023-03-10T13:21:37.701Z,98362.22
2023-03-10T13:24:30.821Z,98369.19
2023-03-10T13:27:19.501Z,98379.69
2023-03-10T13:30:04.542Z,98370.06
2023-03-10T13:32:36.629Z,98378.81
2023-03-10T13:35:39.389Z,98396.44
2023-03-10T13:38:24.549Z,98402.56
2023-03-10T13:41:03.031Z,98427.03
2023-03-10T13:43:43.947Z,98407.03
2023-03-10T13:46:30.234Z,98434.97
2023-03-10T13:49:08.046Z,98463.81
2023-03-10T13:51:40.052Z,98464.72
2023-03-10T13:54:34.822Z,98424.63
2023-03-10T13:57:27.719Z,98490.13
2023-03-10T14:00:02.242Z,98498.88
2023-03-10T14:02:37.865Z,98514.66
2023-03-10T14:05:40.675Z,98531.31
2023-03-10T14:08:30.863Z,98551.47
2023-03-10T14:11:47.020Z,98569.88
2023-03-10T14:14:34.722Z,98574.25
2023-03-10T14:17:35.279Z,98606.56
2023-03-10T14:20:11.656Z,98629.28
2023-03-10T14:22:44.008Z,98639.75
2023-03-10T14:25:19.291Z,98671.19
2023-03-10T14:28:08.440Z,98694.72
2023-03-10T14:30:44.293Z,98697.28
2023-03-10T14:33:16.897Z,98718.16
2023-03-10T14:35:52.559Z,98728.50
2023-03-10T14:38:24.575Z,98746.59
2023-03-10T14:40:56.736Z,98773.47
2023-03-10T14:43:29.188Z,98796.00
2023-03-10T14:46:02.492Z,98810.63
2023-03-10T14:48:40.022Z,98834.72
2023-03-10T14:51:32.541Z,98851.97
2023-03-10T14:54:25.987Z,98870.09
2023-03-10T14:57:01.036Z,98875.19
2023-03-10T14:59:33.741Z,98867.16
2023-03-10T15:02:20.632Z,98869.56
2023-03-10T15:04:52.749Z,98893.91
2023-03-10T15:07:24.798Z,98904.38
2023-03-10T15:10:10.404Z,98905.81
2023-03-10T15:12:44.593Z,98929.88
2023-03-10T15:15:25.922Z,98936.75
2023-03-10T15:17:57.848Z,98967.69
2023-03-10T15:20:30.350Z,98987.34
2023-03-10T15:23:02.301Z,99019.28
2023-03-10T15:25:34.274Z,99054.78
2023-03-10T15:28:06.459Z,99076.19
2023-03-10T15:30:38.479Z,99084.59
2023-03-10T15:33:13.222Z,99096.47
2023-03-10T15:35:45.337Z,99127.81
2023-03-10T15:38:17.336Z,99140.91
2023-03-10T15:40:49.570Z,99151.00
2023-03-10T15:43:21.505Z,99182.03
2023-03-10T15:45:53.500Z,99187.78
2023-03-10T15:48:25.427Z,99215.06
2023-03-10T15:50:57.417Z,99237.16
2023-03-10T15:53:29.375Z,99271.75
2023-03-10T15:56:07.328Z,99285.50
2023-03-10T15:58:39.358Z,99325.25
2023-03-10T16:01:21.337Z,99323.56
2023-03-10T16:03:53.458Z,99326.28
2023-03-10T16:06:29.188Z,99343.31
2023-03-10T16:09:01.576Z,99381.88
2023-03-10T16:11:33.466Z,99378.22
2023-03-10T16:14:05.597Z,99400.75
2023-03-10T16:16:37.642Z,99417.16
2023-03-10T16:19:09.711Z,99417.13
2023-03-10T16:21:41.715Z,99455.34
2023-03-10T16:24:13.768Z,99427.91
2023-03-10T16:26:46.223Z,99478.69
2023-03-10T16:29:19.879Z,99495.00
2023-03-10T16:31:51.941Z,99484.19
2023-03-10T16:34:23.977Z,99471.38
2023-03-10T16:36:56.108Z,99486.88
2023-03-10T16:39:31.082Z,99533.09
2023-03-10T16:42:03.493Z,99552.28
2023-03-10T16:44:35.467Z,99543.09
2023-03-10T16:47:07.594Z,99566.31
2023-03-10T16:49:39.567Z,99568.41
2023-03-10T16:52:11.605Z,99600.38
2023-03-10T16:54:45.804Z,99600.94
2023-03-10T16:57:18.156Z,99614.09
2023-03-10T16:59:51.320Z,99621.88
2023-03-10T17:02:23.312Z,99634.28
2023-03-10T17:04:55.417Z,99643.31
2023-03-10T17:07:27.524Z,99656.97
2023-03-10T17:09:59.473Z,99670.09
2023-03-10T17:12:31.392Z,99674.38
2023-03-10T17:15:04.556Z,99653.91
2023-03-10T17:17:36.547Z,99695.16
2023-03-10T17:20:09.448Z,99703.84
2023-03-10T17:22:41.409Z,99692.06
2023-03-10T17:25:14.739Z,99732.13
2023-03-10T17:27:48.084Z,99744.88
2023-03-10T17:30:20.254Z,99758.81
2023-03-10T17:32:52.276Z,99762.19
2023-03-10T17:35:24.301Z,99783.72
2023-03-10T17:37:56.318Z,99795.63
2023-03-10T17:40:28.303Z,99819.34
2023-03-10T17:43:17.320Z,99825.72
2023-03-10T17:45:56.995Z,99826.44
2023-03-10T17:48:29.769Z,99843.66
2023-03-10T17:51:02.403Z,99850.91
2023-03-10T17:53:34.818Z,99851.81
2023-03-10T17:56:07.875Z,99863.09
2023-03-10T17:58:40.514Z,99872.00
2023-03-10T18:01:27.104Z,99876.34
2023-03-10T18:04:00.822Z,99874.44
2023-03-10T18:06:36.194Z,99883.22
2023-03-10T18:09:13.254Z,99906.78
2023-03-10T18:11:45.355Z,99917.00
2023-03-10T18:14:17.388Z,99920.28
2023-03-10T18:16:49.372Z,99941.97
2023-03-10T18:19:21.532Z,99940.69
2023-03-10T18:21:53.516Z,99964.84
2023-03-10T18:24:25.849Z,99967.31
2023-03-10T18:26:57.739Z,99959.47
2023-03-10T18:29:29.696Z,99964.44
2023-03-10T18:32:01.649Z,99950.41
2023-03-10T18:34:33.574Z,99980.78
2023-03-10T18:37:05.880Z,99983.41
2023-03-10T18:39:40.971Z,99982.28
2023-03-10T18:42:13.425Z,99993.31
2023-03-10T18:44:46.738Z,100012.31
2023-03-10T18:47:19.694Z,100023.47
2023-03-10T18:49:51.666Z,100005.38
2023-03-10T18:52:23.704Z,100028.75
2023-03-10T18:54:55.722Z,100036.41
2023-03-10T18:57:28.254Z,100047.47
2023-03-10T19:00:01.031Z,100040.00
2023-03-10T19:02:36.072Z,100048.75
2023-03-10T19:05:16.163Z,100063.59
2023-03-10T19:07:48.124Z,100055.56
2023-03-10T19:10:21.198Z,100065.97
2023-03-10T19:12:53.466Z,100076.44
2023-03-10T19:15:25.911Z,100031.78
2023-03-10T19:17:57.833Z,100094.53
2023-03-10T19:20:29.823Z,100094.47
2023-03-10T19:23:01.825Z,100102.84
2023-03-10T19:25:33.825Z,100098.50
2023-03-10T19:28:06.042Z,100117.47
2023-03-10T19:30:42.843Z,100136.56
2023-03-10T19:33:15.025Z,100147.09
2023-03-10T19:35:47.155Z,100146.28
2023-03-10T19:38:19.225Z,100141.97
2023-03-10T19:40:51.210Z,100157.78
2023-03-10T19:43:23.153Z,100160.38
2023-03-10T19:46:04.460Z,100166.34
2023-03-10T19:48:36.577Z,100179.22
2023-03-10T19:51:14.322Z,100175.44
2023-03-10T19:53:46.376Z,100194.69
2023-03-10T19:56:19.526Z,100188.69
2023-03-10T19:58:52.066Z,100181.09
2023-03-10T20:01:27.043Z,100205.53
2023-03-10T20:04:04.662Z,100209.59
2023-03-10T20:06:36.608Z,100216.56
2023-03-10T20:09:10.438Z,100191.50
2023-03-10T20:11:42.568Z,100222.41
2023-03-10T20:14:14.600Z,100222.19
2023-03-10T20:16:46.916Z,100216.03
2023-03-10T20:19:19.692Z,100217.81
2023-03-10T20:21:51.815Z,100219.44
2023-03-10T20:24:23.780Z,100222.03
2023-03-10T20:26:58.365Z,100222.19
2023-03-10T20:29:30.461Z,100230.06
2023-03-10T20:32:04.456Z,100230.88
2023-03-10T20:34:36.572Z,100236.97
2023-03-10T20:37:08.564Z,100236.31
2023-03-10T20:39:40.530Z,100244.09
2023-03-10T20:42:12.478Z,100249.44
2023-03-10T20:44:45.011Z,100251.88
2023-03-10T20:47:16.998Z,100248.81
2023-03-10T20:49:49.052Z,100265.63
2023-03-10T20:52:21.218Z,100262.78
2023-03-10T20:54:56.472Z,100268.13
2023-03-10T20:57:28.575Z,100271.53
2023-03-10T21:00:01.976Z,100275.13
2023-03-10T21:02:34.081Z,100270.81
2023-03-10T21:05:07.032Z,100274.38
2023-03-10T21:07:39.004Z,100284.16
2023-03-10T21:10:13.940Z,100273.72
2023-03-10T21:12:46.343Z,100276.22
2023-03-10T21:15:19.591Z,100288.66
2023-03-10T21:17:51.667Z,100286.78
2023-03-10T21:20:24.228Z,100278.66
2023-03-10T21:22:56.291Z,100298.31
2023-03-10T21:25:30.283Z,100256.44
2023-03-10T21:28:02.554Z,100306.09
2023-03-10T21:30:35.316Z,100317.28
2023-03-10T21:33:07.444Z,100320.03
2023-03-10T21:35:40.520Z,100325.72
2023-03-10T21:38:12.537Z,100338.88
2023-03-10T21:40:44.556Z,100344.91
2023-03-10T21:43:16.900Z,100346.50
2023-03-10T21:45:48.987Z,100357.97
2023-03-10T21:48:20.988Z,100359.00
2023-03-10T21:50:53.058Z,100339.72
2023-03-10T21:53:26.719Z,100357.72
2023-03-10T21:56:00.604Z,100356.06
2023-03-10T21:58:35.051Z,100354.31
2023-03-10T22:01:08.108Z,100376.63
2023-03-10T22:03:40.778Z,100369.63
2023-03-10T22:06:12.900Z,100379.97
2023-03-10T22:08:44.902Z,100385.31
2023-03-10T22:11:17.196Z,100390.41
2023-03-10T22:13:49.222Z,100389.72
2023-03-10T22:16:21.727Z,100380.03
2023-03-10T22:18:53.691Z,100390.84
2023-03-10T22:21:25.675Z,100381.22
2023-03-10T22:23:57.668Z,100392.66
2023-03-10T22:26:29.668Z,100394.41
2023-03-10T22:29:01.761Z,100388.91
2023-03-10T22:31:33.841Z,100409.06
2023-03-10T22:34:06.516Z,100414.81
2023-03-10T22:36:38.467Z,100417.31
2023-03-10T22:39:10.418Z,100419.28
2023-03-10T22:41:42.434Z,100430.31
2023-03-10T22:44:14.480Z,100425.41
2023-03-10T22:46:48.704Z,100429.84
2023-03-10T22:49:20.708Z,100441.16
2023-03-10T22:51:52.677Z,100433.41
2023-03-10T22:54:25.857Z,100433.34
2023-03-10T22:56:57.872Z,100436.84
2023-03-10T22:59:29.885Z,100442.75
2023-03-10T23:02:01.959Z,100444.94
2023-03-10T23:04:34.012Z,100441.19
2023-03-10T23:07:06.839Z,100448.91
2023-03-10T23:09:38.925Z,100452.59
2023-03-10T23:12:11.055Z,100455.19
2023-03-10T23:14:43.057Z,100461.09
2023-03-10T23:17:14.986Z,100458.25
2023-03-10T23:19:51.236Z,100467.59
2023-03-10T23:22:24.238Z,100470.09
2023-03-10T23:24:56.258Z,100478.69
2023-03-10T23:27:28.260Z,100465.94
2023-03-10T23:30:00.231Z,100492.53
2023-03-10T23:32:32.329Z,100477.78
2023-03-10T23:35:09.154Z,100494.59
2023-03-10T23:37:41.605Z,100489.00
2023-03-10T23:40:19.440Z,100505.56
2023-03-10T23:42:51.418Z,100505.72
2023-03-10T23:45:25.880Z,100504.66
2023-03-10T23:48:01.493Z,100508.06
2023-03-10T23:50:37.867Z,100507.25
2023-03-10T23:53:12.773Z,100503.69
2023-03-10T23:55:47.387Z,100505.38
2023-03-10T23:58:19.811Z,100501.91
